Time;durP1;ratioP1;P1;durP2;ratioP2;P2;SDS_P1;SDS_P2;PMS_P1;PMS_P2;Temp;Humidity;BMP_temperature;BMP_pressure;BME280_temperature;BME280_humidity;BME280_pressure;Samples;Min_cycle;Max_cycle;Signal;HPM_P1;HPM_P2
2022/08/30 02:43:30;;;;;;;;;30.00;29.00;;;;;25.15;55.79;98813.31;4505941;28;104310;-89
2022/08/30 02:47:13;;;;;;;;;31.33;30.00;;;;;25.20;55.96;98821.56;4543745;28;109089;-89
2022/08/30 02:50:22;;;;;;;;;30.33;29.00;;;;;25.20;55.90;98826.28;4449571;29;102936;-89
2022/08/30 03:03:53;;;;;;;;;;;;;;;;;;;;;
2022/08/30 03:43:57;;;;;;;;;;;;;;;;;;;;;
2022/08/30 08:30:14;;;;;;;;;16.00;14.33;;;;;24.66;55.83;98935.09;5741969;22;102709;-91
2022/08/30 08:34:18;;;;;;;;;;;;;;;;;;;;;
2022/08/30 09:30:58;;;;;;;;;11.33;10.33;;;;;23.93;58.03;98944.97;5037110;27;102305;-95
2022/08/30 09:33:27;;;;;;;;;11.00;10.33;;;;;23.97;58.07;98930.34;5003958;27;111170;-96
2022/08/30 09:35:54;;;;;;;;;14.00;12.00;;;;;24.10;57.66;98944.66;5009713;27;103712;-95
2022/08/30 09:38:21;;;;;;;;;11.00;11.00;;;;;24.16;57.61;98944.41;5003535;27;102601;-95
2022/08/30 09:40:53;;;;;;;;;12.00;11.00;;;;;24.22;57.38;98934.16;5020487;27;102394;-95
2022/08/30 09:43:32;;;;;;;;;11.33;11.00;;;;;24.27;57.17;98934.16;5015381;27;102726;-95
2022/08/30 09:46:00;;;;;;;;;13.00;12.00;;;;;24.31;57.09;98929.72;5000016;27;103979;-95
2022/08/30 09:48:42;;;;;;;;;12.67;12.33;;;;;24.35;56.90;98925.28;5009633;27;104623;-95
2022/08/30 09:51:09;;;;;;;;;12.00;12.00;;;;;24.38;56.80;98928.31;5022462;27;102424;-95
2022/08/30 09:53:52;;;;;;;;;12.00;12.00;;;;;24.41;56.75;98933.25;5002891;27;103910;-91
2022/08/30 09:57:10;;;;;;;;;14.33;13.67;;;;;24.44;56.77;98934.63;5018528;27;109853;-95
2022/08/30 09:59:44;;;;;;;;;12.33;12.00;;;;;24.49;56.63;98931.03;5003714;27;102497;-95
2022/08/30 10:02:24;;;;;;;;;12.00;11.67;;;;;24.51;56.35;98935.16;5028754;27;104877;-95
2022/08/30 10:04:56;;;;;;;;;12.67;12.00;;;;;24.53;56.22;98930.19;5001775;27;102695;-95
2022/08/30 10:07:26;;;;;;;;;12.67;12.33;;;;;24.55;56.24;98922.41;4995798;27;104055;-94
2022/08/30 10:10:27;;;;;;;;;19.33;14.33;;;;;24.57;56.35;98931.25;5000372;27;102138;-95
2022/08/30 10:13:04;;;;;;;;;11.00;10.67;;;;;24.59;56.33;98925.44;5031177;27;102734;-95
2022/08/30 10:15:34;;;;;;;;;14.67;13.00;;;;;24.60;56.54;98925.16;5012594;27;102758;-94
2022/08/30 10:18:41;;;;;;;;;11.00;11.00;;;;;24.63;56.11;98918.25;4984035;27;104041;-95
2022/08/30 10:21:17;;;;;;;;;14.00;13.33;;;;;24.65;56.27;98919.59;4984732;27;102666;-95
2022/08/30 10:23:48;;;;;;;;;13.67;12.67;;;;;24.68;56.19;98924.56;5006486;27;102192;-96
2022/08/30 10:26:28;;;;;;;;;15.67;13.67;;;;;24.68;55.93;98913.50;5018951;27;102529;-94
2022/08/30 10:29:02;;;;;;;;;13.00;11.67;;;;;24.68;56.31;98919.03;5019118;27;104056;-95
2022/08/30 10:31:51;;;;;;;;;13.67;12.67;;;;;24.70;56.11;98913.22;4994222;27;102479;-95
2022/08/30 10:34:26;;;;;;;;;14.00;13.33;;;;;24.69;55.71;98904.09;5002040;28;102636;-96
2022/08/30 10:36:57;;;;;;;;;14.00;12.00;;;;;24.71;56.19;98912.94;4997002;27;102811;-95
2022/08/30 10:39:25;;;;;;;;;13.00;13.00;;;;;24.72;55.94;98911.00;5008522;27;104260;-95
2022/08/30 10:42:03;;;;;;;;;13.67;12.67;;;;;24.73;56.05;98919.00;5001112;27;102408;-96
2022/08/30 10:44:35;;;;;;;;;13.33;13.00;;;;;24.73;55.90;98909.88;5000600;27;102565;-96
2022/08/30 10:47:30;;;;;;;;;14.33;12.67;;;;;24.76;55.73;98910.16;4984289;28;102347;-95
2022/08/30 10:50:37;;;;;;;;;16.33;15.33;;;;;24.77;55.62;98903.47;4989692;27;109530;-95
2022/08/30 10:53:23;;;;;;;;;12.33;11.67;;;;;24.77;55.63;98889.66;4968318;28;102296;-95
2022/08/30 10:55:55;;;;;;;;;13.00;10.00;;;;;24.79;56.06;98892.13;4973733;27;102560;-95
2022/08/30 10:58:22;;;;;;;;;12.67;12.00;;;;;24.80;55.63;98893.78;4992388;27;102245;-96
2022/08/30 11:01:02;;;;;;;;;11.67;11.67;;;;;24.80;55.52;98891.88;4995020;27;103832;-95
2022/08/30 11:03:46;;;;;;;;;13.33;12.00;;;;;24.81;55.63;98893.50;4991779;27;102700;-95
2022/08/30 11:06:24;;;;;;;;;12.67;12.33;;;;;24.81;55.60;98895.47;4993885;27;102758;-95
2022/08/30 11:09:07;;;;;;;;;10.00;8.00;;;;;24.83;55.74;98895.97;4984193;27;102681;-95
2022/08/30 11:11:37;;;;;;;;;13.33;12.33;;;;;24.84;55.49;98892.94;4976603;27;108808;-95
2022/08/30 11:14:06;;;;;;;;;13.67;11.67;;;;;24.84;55.47;98895.69;4987834;27;102507;-96
2022/08/30 11:16:38;;;;;;;;;10.00;10.00;;;;;24.82;55.63;98884.09;4987178;27;102520;-95
2022/08/30 11:19:33;;;;;;;;;12.00;12.00;;;;;24.83;55.55;98882.97;5007387;27;102709;-95
2022/08/30 11:22:20;;;;;;;;;12.33;12.00;;;;;24.86;55.51;98885.19;4997132;27;108880;-95
2022/08/30 11:25:06;;;;;;;;;14.33;11.33;;;;;24.87;55.30;98886.84;4982962;27;102624;-95
2022/08/30 11:27:38;;;;;;;;;11.67;11.67;;;;;24.88;55.61;98882.16;4990867;27;102233;-95
2022/08/30 11:30:23;;;;;;;;;10.00;10.00;;;;;24.89;55.50;98869.97;4997173;27;102521;-95
2022/08/30 11:32:58;;;;;;;;;11.67;11.00;;;;;24.91;55.28;98872.44;4997048;27;109124;-96
2022/08/30 11:35:48;;;;;;;;;12.00;10.33;;;;;24.91;55.43;98878.81;4997363;27;102545;-95
2022/08/30 11:38:39;;;;;;;;;12.67;11.67;;;;;24.93;55.17;98870.22;4979407;27;102642;-95
2022/08/30 11:41:27;;;;;;;;;10.67;9.67;;;;;24.94;55.47;98863.59;4985775;27;102621;-96
2022/08/30 11:43:56;;;;;;;;;11.67;11.00;;;;;24.96;55.19;98869.63;4984172;27;108620;-95
2022/08/30 11:46:25;;;;;;;;;14.67;13.33;;;;;24.97;55.15;98865.75;4978008;27;102490;-95
2022/08/30 11:48:53;;;;;;;;;10.33;9.33;;;;;24.98;55.38;98861.88;4987554;27;104809;-95
2022/08/30 11:51:48;;;;;;;;;13.33;12.67;;;;;24.99;55.14;98864.34;5001628;27;102585;-96
2022/08/30 11:54:38;;;;;;;;;12.33;10.67;;;;;24.99;55.25;98875.41;4988382;27;111090;-96
2022/08/30 11:57:11;;;;;;;;;12.33;11.00;;;;;25.00;55.31;98879.00;4994709;27;102126;-95
2022/08/30 12:00:07;;;;;;;;;10.67;10.67;;;;;25.01;55.24;98866.84;4994005;27;102370;-94
2022/08/30 12:02:57;;;;;;;;;11.67;11.67;;;;;25.03;55.16;98861.84;4990489;27;102855;-95
2022/08/30 12:05:39;;;;;;;;;12.00;11.67;;;;;25.05;54.96;98857.66;5001638;27;108978;-96
2022/08/30 12:08:19;;;;;;;;;12.33;11.67;;;;;25.05;55.08;98854.06;5000630;27;102294;-95
2022/08/30 12:10:51;;;;;;;;;11.00;11.00;;;;;25.06;55.25;98855.72;4987802;27;102608;-96
2022/08/30 12:13:36;;;;;;;;;14.33;11.67;;;;;25.05;55.11;98852.13;4999048;27;102505;-96
2022/08/30 12:16:13;;;;;;;;;11.00;10.33;;;;;25.06;55.27;98847.44;4991987;27;109485;-95
2022/08/30 12:18:49;;;;;;;;;11.00;11.00;;;;;25.08;55.12;98845.22;5003660;27;103299;-94
2022/08/30 12:21:19;;;;;;;;;11.00;10.67;;;;;25.09;55.26;98846.84;4998083;27;102574;-96
2022/08/30 12:23:53;;;;;;;;;11.67;11.00;;;;;25.10;54.95;98842.97;5014869;27;102530;-96
2022/08/30 12:26:24;;;;;;;;;11.00;10.00;;;;;25.12;54.98;98846.28;4998555;27;103979;-95
2022/08/30 12:28:52;;;;;;;;;12.00;11.33;;;;;25.12;55.01;98847.13;4998673;27;102727;-95
2022/08/30 12:31:21;;;;;;;;;11.00;9.67;;;;;25.13;55.19;98848.75;4990954;27;102360;-95
2022/08/30 12:33:59;;;;;;;;;8.67;8.00;;;;;25.13;55.15;98825.78;5003877;27;102638;-95
2022/08/30 12:36:48;;;;;;;;;12.00;11.00;;;;;25.16;55.02;98828.81;4993504;27;104076;-95
2022/08/30 12:39:18;;;;;;;;;11.00;10.00;;;;;25.18;55.15;98821.03;4991750;27;103531;-94
2022/08/30 12:41:45;;;;;;;;;11.33;11.33;;;;;25.19;54.92;98828.22;4979963;27;102810;-95
2022/08/30 12:44:18;;;;;;;;;12.33;10.33;;;;;25.22;55.01;98830.41;4978536;27;102613;-95
2022/08/30 12:46:47;;;;;;;;;9.00;9.00;;;;;25.24;55.08;98813.50;4985110;27;104166;-95
2022/08/30 12:49:15;;;;;;;;;10.67;10.67;;;;;25.27;54.92;98818.44;4987934;27;102389;-95
2022/08/30 12:51:42;;;;;;;;;11.33;10.67;;;;;25.29;54.81;98805.16;4986429;27;102038;-96
2022/08/30 12:54:19;;;;;;;;;12.00;10.33;;;;;25.30;55.04;98807.66;4995920;27;102619;-95
2022/08/30 12:56:53;;;;;;;;;10.00;9.33;;;;;25.32;54.97;98816.47;4993340;27;104222;-96
2022/08/30 12:59:57;;;;;;;;;12.00;10.67;;;;;25.35;54.79;98812.31;4991568;27;102564;-95
2022/08/30 13:02:40;;;;;;;;;10.67;10.33;;;;;25.35;54.69;98801.22;4979638;27;102488;-96
2022/08/30 13:05:33;;;;;;;;;9.00;9.00;;;;;25.36;54.87;98800.09;4988732;27;102419;-95
2022/08/30 13:08:25;;;;;;;;;11.67;11.00;;;;;25.38;54.77;98803.41;4980344;27;108822;-95
2022/08/30 13:11:00;;;;;;;;;9.67;8.33;;;;;25.38;54.61;98806.19;4978674;27;102612;-95
2022/08/30 13:13:43;;;;;;;;;10.00;9.00;;;;;25.40;54.87;98792.84;4971848;27;102067;-95
2022/08/30 13:16:17;;;;;;;;;10.33;10.00;;;;;25.41;54.73;98791.75;4972769;27;102322;-95
2022/08/30 13:18:45;;;;;;;;;11.00;9.00;;;;;25.44;54.89;98798.66;4996216;27;104282;-95
2022/08/30 13:21:30;;;;;;;;;10.33;9.67;;;;;25.44;54.71;98799.44;5000130;27;102791;-95
2022/08/30 13:23:59;;;;;;;;;12.00;11.33;;;;;25.47;54.93;98792.50;4990016;27;102164;-95
2022/08/30 13:26:28;;;;;;;;;9.67;9.67;;;;;25.50;54.77;98791.91;4957072;27;102806;-95
2022/08/30 13:29:00;;;;;;;;;9.33;9.00;;;;;25.51;54.80;98788.88;4987267;27;103990;-95
2022/08/30 13:31:27;;;;;;;;;11.33;10.00;;;;;25.53;54.92;98786.63;4995680;27;102485;-96
2022/08/30 13:33:55;;;;;;;;;10.33;9.33;;;;;25.56;55.13;98786.06;5010624;27;103358;-95
2022/08/30 13:36:30;;;;;;;;;10.67;9.00;;;;;25.60;54.97;98775.22;4985197;27;102637;-95
2022/08/30 13:38:58;;;;;;;;;10.00;10.00;;;;;25.62;54.70;98784.88;4990180;27;104070;-95
2022/08/30 13:41:24;;;;;;;;;8.33;8.33;;;;;25.64;54.83;98784.59;4996809;27;102668;-94
2022/08/30 13:43:55;;;;;;;;;9.00;8.00;;;;;25.65;54.66;98778.78;4985536;27;102571;-96
2022/08/30 13:46:41;;;;;;;;;8.33;8.33;;;;;25.69;54.57;98779.81;4996226;27;102796;-90
2022/08/30 13:49:20;;;;;;;;;8.00;8.00;;;;;25.71;54.63;98783.13;4978436;28;104057;-95
2022/08/30 13:52:07;;;;;;;;;9.33;7.67;;;;;25.73;54.55;98786.44;4998075;27;102485;-95
2022/08/30 13:54:50;;;;;;;;;10.00;10.00;;;;;25.76;54.57;98776.69;4977691;27;102617;-96
2022/08/30 13:57:20;;;;;;;;;9.67;9.00;;;;;25.77;54.51;98770.88;5007625;27;102402;-95
2022/08/30 14:00:09;;;;;;;;;9.67;8.67;;;;;25.82;54.53;98771.91;4991509;27;108514;-95
2022/08/30 14:02:38;;;;;;;;;10.00;9.00;;;;;25.84;54.52;98775.22;4996857;27;103444;-95
2022/08/30 14:05:12;;;;;;;;;8.33;8.00;;;;;25.87;54.36;98771.84;4993995;27;102447;-94
2022/08/30 14:07:58;;;;;;;;;10.33;9.00;;;;;25.89;54.50;98772.41;5000820;27;102308;-96
2022/08/30 14:10:27;;;;;;;;;9.00;9.00;;;;;25.91;54.15;98764.59;4992705;27;104163;-95
2022/08/30 14:12:58;;;;;;;;;9.67;8.67;;;;;25.92;54.25;98758.78;4988683;27;102462;-94
2022/08/30 14:15:33;;;;;;;;;8.33;8.33;;;;;25.95;54.26;98762.88;4996576;27;102754;-95
2022/08/30 14:18:04;;;;;;;;;9.00;9.00;;;;;25.98;54.24;98762.31;4991825;27;102722;-94
2022/08/30 14:20:32;;;;;;;;;9.33;8.67;;;;;26.00;54.31;98758.09;5007882;27;104070;-95
2022/08/30 14:22:58;;;;;;;;;9.00;9.00;;;;;26.02;54.25;98752.28;4998288;27;102252;-95
2022/08/30 14:25:27;;;;;;;;;9.00;8.00;;;;;26.05;54.37;98751.66;5002307;27;102527;-95
2022/08/30 14:27:55;;;;;;;;;9.00;8.33;;;;;26.07;54.15;98747.47;4994476;27;102800;-96
2022/08/30 14:30:22;;;;;;;;;9.67;9.67;;;;;26.10;54.21;98757.97;5005481;27;104481;-95
2022/08/30 14:32:49;;;;;;;;;9.33;8.00;;;;;26.13;54.03;98748.22;4999414;27;102267;-95
2022/08/30 14:35:18;;;;;;;;;10.00;9.00;;;;;26.16;53.94;98744.88;4986637;27;102428;-95
2022/08/30 14:37:48;;;;;;;;;10.00;9.00;;;;;26.16;53.85;98744.88;4998095;27;102337;-95
2022/08/30 14:40:15;;;;;;;;;8.67;8.67;;;;;26.16;53.92;98751.22;5005465;27;104242;-95
2022/08/30 14:42:42;;;;;;;;;8.00;8.00;;;;;26.16;53.86;98745.66;4980833;27;102680;-95
2022/08/30 14:45:10;;;;;;;;;8.00;8.00;;;;;26.16;53.50;98740.13;4983949;27;102209;-91
2022/08/30 14:47:36;;;;;;;;;9.00;9.00;;;;;26.16;53.67;98755.97;4991358;27;102663;-81
2022/08/30 14:50:04;;;;;;;;;7.33;7.00;;;;;26.11;52.44;98756.03;4977088;27;104093;-84
2022/08/30 14:52:32;;;;;;;;;8.50;7.50;;;;;26.04;51.60;98750.00;4913941;27;102661;-84
2022/08/30 14:54:59;;;;;;;;;6.67;6.00;;;;;25.98;51.53;98742.91;4958961;27;102635;-85
2022/08/30 14:57:34;;;;;;;;;8.00;7.67;;;;;25.92;51.65;98744.09;4877416;27;102853;-85
2022/08/30 15:00:24;;;;;;;;;10.00;7.00;;;;;25.91;51.75;98756.28;4934552;27;104241;-84
2022/08/30 15:02:52;;;;;;;;;5.67;5.67;;;;;25.88;51.88;98754.13;4845815;27;102787;-85
2022/08/30 15:05:19;;;;;;;;;7.00;6.33;;;;;25.87;51.81;98744.97;4878927;27;103113;-85
2022/08/30 15:07:49;;;;;;;;;6.00;5.33;;;;;25.86;51.87;98748.03;4903656;28;102849;-85
2022/08/30 15:10:18;;;;;;;;;3.00;3.00;;;;;25.84;51.72;98747.53;4914534;28;104141;-84
2022/08/30 15:12:47;;;;;;;;;6.00;6.00;;;;;25.81;52.05;98750.88;4922221;27;102885;-84
2022/08/30 15:15:15;;;;;;;;;4.00;4.00;;;;;25.80;52.08;98747.31;4848344;27;103296;-85
2022/08/30 15:17:43;;;;;;;;;6.67;6.00;;;;;25.81;52.25;98750.88;4895430;27;102717;-85
2022/08/30 15:20:11;;;;;;;;;7.67;7.33;;;;;25.78;52.17;98752.28;4909365;27;104516;-84
2022/08/30 15:22:38;;;;;;;;;7.67;7.00;;;;;25.80;52.24;98746.47;4944276;27;102434;-84
2022/08/30 15:25:07;;;;;;;;;8.67;8.67;;;;;25.79;52.26;98742.88;4755980;28;103822;-85
2022/08/30 15:27:35;;;;;;;;;11.00;8.00;;;;;25.81;52.22;98742.56;4664761;28;103337;-85
2022/08/30 15:30:01;;;;;;;;;7.00;6.00;;;;;25.79;52.22;98742.03;4639987;28;1932532;-85
2022/08/30 15:32:36;;;;;;;;;5.33;5.00;;;;;25.77;52.34;98747.88;4939058;27;1450619;-85
2022/08/30 15:35:03;;;;;;;;;8.67;7.00;;;;;25.75;52.21;98748.19;4885141;27;102963;-85
2022/08/30 15:37:33;;;;;;;;;10.00;8.33;;;;;25.74;52.03;98748.47;4915525;27;104329;-85
2022/08/30 15:40:01;;;;;;;;;9.00;8.00;;;;;25.76;52.54;98747.03;4964491;27;102738;-84
2022/08/30 15:42:30;;;;;;;;;8.00;7.67;;;;;25.79;52.38;98751.19;4935273;27;102766;-85
2022/08/30 15:44:58;;;;;;;;;7.33;6.67;;;;;25.72;50.85;98751.53;4929006;27;103256;-89
2022/08/30 15:47:25;;;;;;;;;7.00;6.67;;;;;25.65;50.04;98742.75;4946633;27;103820;-85
2022/08/30 15:49:56;;;;;;;;;4.00;4.00;;;;;25.60;49.98;98751.13;4866726;27;102647;-85
2022/08/30 15:52:23;;;;;;;;;5.00;4.33;;;;;25.52;48.95;98743.44;4882066;28;102703;-85
2022/08/30 15:54:50;;;;;;;;;4.67;4.33;;;;;25.42;49.25;98740.78;4856486;28;103075;-85
2022/08/30 15:57:20;;;;;;;;;4.00;3.00;;;;;25.33;48.66;98740.63;4924553;28;104028;-85
2022/08/30 15:59:47;;;;;;;;;5.00;4.33;;;;;25.27;48.43;98739.00;4903372;28;103126;-85
2022/08/30 16:02:14;;;;;;;;;4.33;4.33;;;;;25.25;48.97;98743.19;4917051;28;102734;-83
2022/08/30 16:04:42;;;;;;;;;4.33;4.33;;;;;25.26;48.76;98737.34;4895848;28;103018;-84
2022/08/30 16:07:09;;;;;;;;;4.33;4.00;;;;;25.17;49.42;98733.56;4785757;28;104325;-83
2022/08/30 16:09:36;;;;;;;;;4.00;4.00;;;;;25.18;49.94;98739.94;4768510;28;102811;-83
2022/08/30 16:12:06;;;;;;;;;3.00;3.00;;;;;25.16;49.91;98733.88;4889216;28;102701;-83
2022/08/30 16:14:35;;;;;;;;;4.00;4.00;;;;;25.14;49.86;98734.16;4871733;28;102640;-83
2022/08/30 16:17:03;;;;;;;;;4.00;3.00;;;;;25.11;49.43;98731.16;4868201;28;103772;-84
2022/08/30 16:19:30;;;;;;;;;4.00;3.33;;;;;25.09;49.44;98731.44;4898335;28;102737;-84
2022/08/30 16:21:57;;;;;;;;;4.67;4.00;;;;;25.12;49.64;98732.81;4819937;28;102947;-84
2022/08/30 16:24:24;;;;;;;;;4.00;4.00;;;;;25.06;49.35;98733.97;4929900;27;102737;-84
2022/08/30 16:26:51;;;;;;;;;4.00;4.00;;;;;25.02;49.49;98732.91;4965376;27;104080;-84
2022/08/30 16:29:18;;;;;;;;;3.67;3.67;;;;;24.96;49.95;98732.13;4966607;27;102401;-84
2022/08/30 16:31:45;;;;;;;;;4.00;4.00;;;;;24.96;49.67;98736.84;4989832;27;102721;-95
2022/08/30 16:34:14;;;;;;;;;4.33;4.00;;;;;24.93;49.88;98731.91;4932612;27;103297;-96
2022/08/30 16:36:41;;;;;;;;;4.00;4.00;;;;;24.85;50.12;98736.91;4977211;27;104110;-96
2022/08/30 16:39:09;;;;;;;;;4.00;4.00;;;;;24.85;50.04;98725.84;5001784;27;102376;-96
2022/08/30 16:41:37;;;;;;;;;4.00;4.00;;;;;24.78;50.18;98728.13;4942582;27;102803;-95
2022/08/30 16:44:04;;;;;;;;;3.67;3.67;;;;;24.73;50.16;98716.25;4993300;27;102300;-96
2022/08/30 16:46:31;;;;;;;;;4.00;3.00;;;;;24.73;49.80;98728.16;4972676;27;104692;-96
2022/08/30 16:49:01;;;;;;;;;5.33;4.67;;;;;24.67;50.14;98729.34;4928032;27;103876;-95
2022/08/30 16:51:28;;;;;;;;;3.67;3.67;;;;;24.76;49.74;98733.13;4780579;28;104331;-96
2022/08/30 16:53:56;;;;;;;;;2.00;2.00;;;;;24.72;49.77;98743.09;4931263;27;102626;-95
2022/08/30 16:56:24;;;;;;;;;2.67;2.67;;;;;24.61;50.19;98735.19;4956686;27;104060;-96
2022/08/30 16:58:52;;;;;;;;;2.67;2.67;;;;;24.62;49.77;98745.13;4982747;27;102503;-96
2022/08/30 17:01:27;;;;;;;;;4.00;4.00;;;;;24.65;50.20;98748.16;4973692;27;104117;-96
2022/08/30 17:03:54;;;;;;;;;5.00;5.00;;;;;24.62;50.12;98745.97;4986164;27;102701;-96
2022/08/30 17:06:21;;;;;;;;;3.00;3.00;;;;;24.60;49.76;98748.19;4914395;27;104301;-90
2022/08/30 17:08:48;;;;;;;;;4.67;3.67;;;;;24.60;49.97;98750.94;4915200;28;102590;-96
2022/08/30 17:11:22;;;;;;;;;4.00;4.00;;;;;24.55;49.82;98759.28;4911338;27;102670;-95
2022/08/30 17:13:49;;;;;;;;;5.00;4.00;;;;;24.50;50.13;98756.53;4832321;28;103248;-96
2022/08/30 17:16:17;;;;;;;;;4.00;4.00;;;;;24.43;50.35;98759.66;4819304;28;103968;-95
2022/08/30 17:18:53;;;;;;;;;3.00;3.00;;;;;24.35;50.10;98759.44;4885368;28;102672;-95
2022/08/30 17:21:20;;;;;;;;;5.33;3.67;;;;;24.32;50.26;98760.00;4863442;28;102389;-96
2022/08/30 17:23:48;;;;;;;;;5.67;3.67;;;;;24.26;50.08;98761.16;4909327;28;102890;-96
2022/08/30 17:26:17;;;;;;;;;6.00;5.33;;;;;24.24;50.36;98763.38;4801232;28;104054;-96
2022/08/30 17:28:44;;;;;;;;;4.00;4.00;;;;;24.19;50.25;98774.44;4841387;28;104325;-95
2022/08/30 17:31:11;;;;;;;;;5.00;4.00;;;;;24.15;50.47;98770.56;4874189;28;102881;-95
2022/08/30 17:33:41;;;;;;;;;4.67;4.67;;;;;24.14;50.47;98774.44;4891894;28;104489;-94
2022/08/30 17:36:11;;;;;;;;;4.33;4.00;;;;;24.15;50.52;98774.16;4878455;28;108846;-96
2022/08/30 17:38:38;;;;;;;;;6.00;5.00;;;;;24.16;50.80;98786.06;4909795;28;102841;-96
2022/08/30 17:41:11;;;;;;;;;4.00;4.00;;;;;24.20;50.98;98781.63;4912265;28;102848;-96
2022/08/30 17:43:38;;;;;;;;;5.00;4.00;;;;;24.27;50.67;98777.44;4904688;27;102929;-96
2022/08/30 17:46:07;;;;;;;;;4.33;4.00;;;;;24.32;50.66;98793.16;4800310;28;108912;-96
2022/08/30 17:48:35;;;;;;;;;4.00;3.67;;;;;24.34;50.85;98797.31;4892586;28;105542;-96
